Terminal Aerodrome Forecast
Issued by NWS

Home | Current Version | Previous Version | Text Only | Print | Product List | Glossary On
Versions: 1 2 3 4 5 6 7 8 9 10 11 12 13 14 15
000
FTUS44 KLIX 202300 RRA
TAFGPT
TAF
KGPT 202340Z 2100/2124 01007G14KT P6SM OVC011
     FM210400 03009KT P6SM BKN035
     FM210900 04009KT P6SM BKN025
     FM212100 07006KT P6SM BKN250=

USA.gov is the U.S. government's official web portal to all federal, state and local government web resources and services.